sensor_id;sensor_type;location;lat;lon;timestamp;P1;durP1;ratioP1;P2;durP2;ratioP2
13866;SDS011;7003;46.982;15.248;2023-06-22T00:01:17;11.27;;;7.65;;
13866;SDS011;7003;46.982;15.248;2023-06-22T00:03:46;14.55;;;7.82;;
13866;SDS011;7003;46.982;15.248;2023-06-22T00:06:13;7.85;;;7.03;;
13866;SDS011;7003;46.982;15.248;2023-06-22T00:08:40;19.00;;;8.18;;
13866;SDS011;7003;46.982;15.248;2023-06-22T00:11:10;12.18;;;8.13;;
13866;SDS011;7003;46.982;15.248;2023-06-22T00:13:40;7.78;;;6.10;;
13866;SDS011;7003;46.982;15.248;2023-06-22T00:16:08;10.80;;;7.70;;
13866;SDS011;7003;46.982;15.248;2023-06-22T00:18:37;9.55;;;8.05;;
13866;SDS011;7003;46.982;15.248;2023-06-22T00:21:04;10.90;;;7.50;;
13866;SDS011;7003;46.982;15.248;2023-06-22T00:23:33;9.00;;;6.40;;
13866;SDS011;7003;46.982;15.248;2023-06-22T00:26:00;10.88;;;6.55;;
13866;SDS011;7003;46.982;15.248;2023-06-22T00:28:29;9.73;;;7.18;;
13866;SDS011;7003;46.982;15.248;2023-06-22T00:30:56;8.25;;;7.25;;
13866;SDS011;7003;46.982;15.248;2023-06-22T00:33:27;13.15;;;8.10;;
13866;SDS011;7003;46.982;15.248;2023-06-22T00:35:57;15.25;;;7.40;;
13866;SDS011;7003;46.982;15.248;2023-06-22T00:38:26;9.25;;;7.65;;
13866;SDS011;7003;46.982;15.248;2023-06-22T00:40:56;13.27;;;7.10;;
13866;SDS011;7003;46.982;15.248;2023-06-22T00:43:23;8.73;;;7.45;;
13866;SDS011;7003;46.982;15.248;2023-06-22T00:45:52;7.95;;;7.15;;
13866;SDS011;7003;46.982;15.248;2023-06-22T00:48:22;10.63;;;8.40;;
13866;SDS011;7003;46.982;15.248;2023-06-22T00:50:50;9.95;;;6.47;;
13866;SDS011;7003;46.982;15.248;2023-06-22T00:53:21;6.75;;;5.93;;
13866;SDS011;7003;46.982;15.248;2023-06-22T00:55:50;7.90;;;7.10;;
13866;SDS011;7003;46.982;15.248;2023-06-22T00:58:20;11.75;;;7.07;;
13866;SDS011;7003;46.982;15.248;2023-06-22T01:00:51;8.75;;;7.03;;
13866;SDS011;7003;46.982;15.248;2023-06-22T01:03:20;8.55;;;7.13;;
13866;SDS011;7003;46.982;15.248;2023-06-22T01:05:47;7.35;;;6.45;;
13866;SDS011;7003;46.982;15.248;2023-06-22T01:08:22;8.20;;;6.95;;
13866;SDS011;7003;46.982;15.248;2023-06-22T01:10:57;9.60;;;7.38;;
13866;SDS011;7003;46.982;15.248;2023-06-22T01:13:35;14.38;;;8.60;;
13866;SDS011;7003;46.982;15.248;2023-06-22T01:16:07;8.02;;;7.22;;
13866;SDS011;7003;46.982;15.248;2023-06-22T01:18:41;8.55;;;6.93;;
13866;SDS011;7003;46.982;15.248;2023-06-22T01:21:12;8.70;;;6.68;;
13866;SDS011;7003;46.982;15.248;2023-06-22T01:23:50;7.78;;;6.72;;
13866;SDS011;7003;46.982;15.248;2023-06-22T01:26:25;7.50;;;6.57;;
13866;SDS011;7003;46.982;15.248;2023-06-22T01:29:03;8.60;;;6.80;;
13866;SDS011;7003;46.982;15.248;2023-06-22T01:31:31;8.90;;;6.35;;
13866;SDS011;7003;46.982;15.248;2023-06-22T01:34:01;7.57;;;6.63;;
13866;SDS011;7003;46.982;15.248;2023-06-22T01:36:31;11.68;;;7.20;;
13866;SDS011;7003;46.982;15.248;2023-06-22T01:38:59;10.95;;;7.18;;
13866;SDS011;7003;46.982;15.248;2023-06-22T01:41:33;7.38;;;6.13;;
13866;SDS011;7003;46.982;15.248;2023-06-22T01:44:03;8.45;;;6.53;;
13866;SDS011;7003;46.982;15.248;2023-06-22T01:46:32;12.88;;;5.95;;
13866;SDS011;7003;46.982;15.248;2023-06-22T01:49:01;6.65;;;5.32;;
13866;SDS011;7003;46.982;15.248;2023-06-22T01:51:32;9.48;;;5.43;;
13866;SDS011;7003;46.982;15.248;2023-06-22T01:53:59;8.45;;;6.50;;
13866;SDS011;7003;46.982;15.248;2023-06-22T01:56:27;8.95;;;6.72;;
13866;SDS011;7003;46.982;15.248;2023-06-22T01:59:01;11.25;;;6.72;;
13866;SDS011;7003;46.982;15.248;2023-06-22T02:01:38;10.52;;;6.32;;
13866;SDS011;7003;46.982;15.248;2023-06-22T02:04:13;8.45;;;6.10;;
13866;SDS011;7003;46.982;15.248;2023-06-22T02:06:47;7.70;;;6.28;;
13866;SDS011;7003;46.982;15.248;2023-06-22T02:09:20;8.90;;;6.00;;
13866;SDS011;7003;46.982;15.248;2023-06-22T02:11:50;7.78;;;6.97;;
13866;SDS011;7003;46.982;15.248;2023-06-22T02:14:22;6.90;;;5.85;;
13866;SDS011;7003;46.982;15.248;2023-06-22T02:16:50;10.10;;;6.50;;
13866;SDS011;7003;46.982;15.248;2023-06-22T02:19:22;9.50;;;6.03;;
13866;SDS011;7003;46.982;15.248;2023-06-22T02:21:52;12.82;;;7.20;;
13866;SDS011;7003;46.982;15.248;2023-06-22T02:24:19;7.40;;;6.10;;
13866;SDS011;7003;46.982;15.248;2023-06-22T02:26:48;7.60;;;5.90;;
13866;SDS011;7003;46.982;15.248;2023-06-22T02:29:16;10.50;;;5.28;;
13866;SDS011;7003;46.982;15.248;2023-06-22T02:31:44;14.30;;;7.00;;
13866;SDS011;7003;46.982;15.248;2023-06-22T02:34:11;10.50;;;6.85;;
13866;SDS011;7003;46.982;15.248;2023-06-22T02:36:46;11.20;;;5.22;;
13866;SDS011;7003;46.982;15.248;2023-06-22T02:39:19;6.60;;;6.00;;
13866;SDS011;7003;46.982;15.248;2023-06-22T02:41:50;7.70;;;6.05;;
13866;SDS011;7003;46.982;15.248;2023-06-22T02:44:18;8.75;;;5.93;;
13866;SDS011;7003;46.982;15.248;2023-06-22T02:46:48;6.93;;;5.32;;
13866;SDS011;7003;46.982;15.248;2023-06-22T02:49:16;8.45;;;5.55;;
13866;SDS011;7003;46.982;15.248;2023-06-22T02:51:46;10.48;;;5.35;;
13866;SDS011;7003;46.982;15.248;2023-06-22T02:54:17;10.05;;;5.50;;
13866;SDS011;7003;46.982;15.248;2023-06-22T02:56:44;8.68;;;5.68;;
13866;SDS011;7003;46.982;15.248;2023-06-22T02:59:15;5.10;;;4.55;;
13866;SDS011;7003;46.982;15.248;2023-06-22T03:01:43;7.70;;;5.72;;
13866;SDS011;7003;46.982;15.248;2023-06-22T03:04:13;8.88;;;6.40;;
13866;SDS011;7003;46.982;15.248;2023-06-22T03:06:41;15.00;;;5.95;;
13866;SDS011;7003;46.982;15.248;2023-06-22T03:09:09;9.15;;;6.47;;
13866;SDS011;7003;46.982;15.248;2023-06-22T03:11:37;12.25;;;7.53;;
13866;SDS011;7003;46.982;15.248;2023-06-22T03:14:05;6.13;;;5.53;;
13866;SDS011;7003;46.982;15.248;2023-06-22T03:16:34;12.70;;;5.53;;
13866;SDS011;7003;46.982;15.248;2023-06-22T03:19:06;9.23;;;5.93;;
13866;SDS011;7003;46.982;15.248;2023-06-22T03:21:37;17.25;;;6.10;;
13866;SDS011;7003;46.982;15.248;2023-06-22T03:24:05;6.25;;;5.63;;
13866;SDS011;7003;46.982;15.248;2023-06-22T03:26:37;7.53;;;5.13;;
13866;SDS011;7003;46.982;15.248;2023-06-22T03:29:07;6.70;;;5.85;;
13866;SDS011;7003;46.982;15.248;2023-06-22T03:31:38;5.95;;;4.80;;
13866;SDS011;7003;46.982;15.248;2023-06-22T03:34:06;7.22;;;5.47;;
13866;SDS011;7003;46.982;15.248;2023-06-22T03:36:38;10.65;;;5.93;;
13866;SDS011;7003;46.982;15.248;2023-06-22T03:39:06;6.43;;;5.13;;
13866;SDS011;7003;46.982;15.248;2023-06-22T03:41:34;7.78;;;6.47;;
13866;SDS011;7003;46.982;15.248;2023-06-22T03:44:03;5.90;;;4.30;;
13866;SDS011;7003;46.982;15.248;2023-06-22T03:46:33;11.85;;;4.85;;
13866;SDS011;7003;46.982;15.248;2023-06-22T03:49:04;10.05;;;6.32;;
13866;SDS011;7003;46.982;15.248;2023-06-22T03:51:32;8.43;;;5.07;;
13866;SDS011;7003;46.982;15.248;2023-06-22T03:54:05;10.65;;;6.60;;
13866;SDS011;7003;46.982;15.248;2023-06-22T03:56:33;7.28;;;5.15;;
13866;SDS011;7003;46.982;15.248;2023-06-22T03:59:01;7.15;;;5.05;;
13866;SDS011;7003;46.982;15.248;2023-06-22T04:01:30;11.20;;;5.35;;
13866;SDS011;7003;46.982;15.248;2023-06-22T04:04:00;8.95;;;6.65;;
13866;SDS011;7003;46.982;15.248;2023-06-22T04:06:32;5.70;;;5.05;;
13866;SDS011;7003;46.982;15.248;2023-06-22T04:09:03;8.07;;;5.32;;
13866;SDS011;7003;46.982;15.248;2023-06-22T04:11:35;7.85;;;5.55;;
13866;SDS011;7003;46.982;15.248;2023-06-22T04:14:07;7.60;;;5.38;;
13866;SDS011;7003;46.982;15.248;2023-06-22T04:16:37;10.82;;;5.70;;
13866;SDS011;7003;46.982;15.248;2023-06-22T04:19:07;9.25;;;6.15;;
13866;SDS011;7003;46.982;15.248;2023-06-22T04:21:42;6.25;;;4.65;;
13866;SDS011;7003;46.982;15.248;2023-06-22T04:24:14;7.43;;;5.13;;
13866;SDS011;7003;46.982;15.248;2023-06-22T04:26:42;10.77;;;6.25;;
13866;SDS011;7003;46.982;15.248;2023-06-22T04:29:13;7.43;;;4.93;;
13866;SDS011;7003;46.982;15.248;2023-06-22T04:31:41;7.13;;;5.50;;
13866;SDS011;7003;46.982;15.248;2023-06-22T04:34:09;11.07;;;4.88;;
13866;SDS011;7003;46.982;15.248;2023-06-22T04:36:38;6.15;;;5.30;;
13866;SDS011;7003;46.982;15.248;2023-06-22T04:39:08;10.35;;;5.60;;
13866;SDS011;7003;46.982;15.248;2023-06-22T04:41:41;7.90;;;5.53;;
13866;SDS011;7003;46.982;15.248;2023-06-22T04:44:09;7.35;;;5.28;;
13866;SDS011;7003;46.982;15.248;2023-06-22T04:46:40;12.15;;;5.20;;
13866;SDS011;7003;46.982;15.248;2023-06-22T04:49:08;11.15;;;6.00;;
13866;SDS011;7003;46.982;15.248;2023-06-22T04:51:37;6.15;;;4.25;;
13866;SDS011;7003;46.982;15.248;2023-06-22T04:54:07;9.48;;;4.35;;
13866;SDS011;7003;46.982;15.248;2023-06-22T04:56:35;9.77;;;5.38;;
13866;SDS011;7003;46.982;15.248;2023-06-22T04:59:08;6.05;;;5.18;;
13866;SDS011;7003;46.982;15.248;2023-06-22T05:01:40;8.10;;;3.85;;
13866;SDS011;7003;46.982;15.248;2023-06-22T05:04:16;5.95;;;5.18;;
13866;SDS011;7003;46.982;15.248;2023-06-22T05:06:47;9.23;;;5.82;;
13866;SDS011;7003;46.982;15.248;2023-06-22T05:09:15;8.77;;;5.78;;
13866;SDS011;7003;46.982;15.248;2023-06-22T05:11:43;7.18;;;5.20;;
13866;SDS011;7003;46.982;15.248;2023-06-22T05:14:13;6.05;;;5.07;;
13866;SDS011;7003;46.982;15.248;2023-06-22T05:16:44;7.45;;;5.05;;
13866;SDS011;7003;46.982;15.248;2023-06-22T05:19:13;8.05;;;4.32;;
13866;SDS011;7003;46.982;15.248;2023-06-22T05:21:42;14.88;;;5.82;;
13866;SDS011;7003;46.982;15.248;2023-06-22T05:24:10;6.97;;;5.00;;
13866;SDS011;7003;46.982;15.248;2023-06-22T05:26:39;8.27;;;4.88;;
13866;SDS011;7003;46.982;15.248;2023-06-22T05:29:10;9.77;;;4.88;;
13866;SDS011;7003;46.982;15.248;2023-06-22T05:31:39;10.15;;;5.13;;
13866;SDS011;7003;46.982;15.248;2023-06-22T05:34:10;11.13;;;5.68;;
13866;SDS011;7003;46.982;15.248;2023-06-22T05:36:38;9.07;;;4.40;;
13866;SDS011;7003;46.982;15.248;2023-06-22T05:39:11;10.32;;;4.70;;
13866;SDS011;7003;46.982;15.248;2023-06-22T05:41:41;7.07;;;5.10;;
13866;SDS011;7003;46.982;15.248;2023-06-22T05:44:10;9.82;;;5.10;;
13866;SDS011;7003;46.982;15.248;2023-06-22T05:46:40;17.17;;;5.05;;
13866;SDS011;7003;46.982;15.248;2023-06-22T05:49:10;7.05;;;5.20;;
13866;SDS011;7003;46.982;15.248;2023-06-22T05:51:41;7.05;;;5.18;;
13866;SDS011;7003;46.982;15.248;2023-06-22T05:54:11;12.48;;;6.38;;
13866;SDS011;7003;46.982;15.248;2023-06-22T05:56:43;8.43;;;4.65;;
13866;SDS011;7003;46.982;15.248;2023-06-22T05:59:11;8.05;;;4.63;;
13866;SDS011;7003;46.982;15.248;2023-06-22T06:01:43;5.00;;;4.50;;
13866;SDS011;7003;46.982;15.248;2023-06-22T06:04:11;7.40;;;4.90;;
13866;SDS011;7003;46.982;15.248;2023-06-22T06:06:41;10.98;;;4.55;;
13866;SDS011;7003;46.982;15.248;2023-06-22T06:09:10;8.82;;;5.07;;
13866;SDS011;7003;46.982;15.248;2023-06-22T06:11:38;4.78;;;4.07;;
13866;SDS011;7003;46.982;15.248;2023-06-22T06:14:06;9.55;;;5.40;;
13866;SDS011;7003;46.982;15.248;2023-06-22T06:16:35;5.70;;;4.15;;
13866;SDS011;7003;46.982;15.248;2023-06-22T06:19:04;7.43;;;5.53;;
13866;SDS011;7003;46.982;15.248;2023-06-22T06:21:32;7.03;;;5.38;;
13866;SDS011;7003;46.982;15.248;2023-06-22T06:23:59;8.05;;;5.85;;
13866;SDS011;7003;46.982;15.248;2023-06-22T06:26:26;11.07;;;5.80;;
13866;SDS011;7003;46.982;15.248;2023-06-22T06:28:55;7.45;;;4.88;;
13866;SDS011;7003;46.982;15.248;2023-06-22T06:31:25;5.22;;;4.22;;
13866;SDS011;7003;46.982;15.248;2023-06-22T06:33:54;5.93;;;4.70;;
13866;SDS011;7003;46.982;15.248;2023-06-22T06:36:23;11.00;;;6.00;;
13866;SDS011;7003;46.982;15.248;2023-06-22T06:38:52;10.55;;;6.70;;
13866;SDS011;7003;46.982;15.248;2023-06-22T06:41:20;9.10;;;5.75;;
13866;SDS011;7003;46.982;15.248;2023-06-22T06:43:50;11.75;;;6.45;;
13866;SDS011;7003;46.982;15.248;2023-06-22T06:46:17;9.02;;;5.82;;
13866;SDS011;7003;46.982;15.248;2023-06-22T06:48:45;7.72;;;5.50;;
13866;SDS011;7003;46.982;15.248;2023-06-22T06:51:13;12.93;;;5.30;;
13866;SDS011;7003;46.982;15.248;2023-06-22T06:53:41;9.13;;;6.20;;
13866;SDS011;7003;46.982;15.248;2023-06-22T06:56:09;11.30;;;7.85;;
13866;SDS011;7003;46.982;15.248;2023-06-22T06:58:40;12.50;;;8.10;;
13866;SDS011;7003;46.982;15.248;2023-06-22T07:01:12;8.75;;;5.50;;
13866;SDS011;7003;46.982;15.248;2023-06-22T07:03:40;11.00;;;6.47;;
13866;SDS011;7003;46.982;15.248;2023-06-22T07:06:07;11.43;;;6.18;;
13866;SDS011;7003;46.982;15.248;2023-06-22T07:08:35;11.30;;;6.13;;
13866;SDS011;7003;46.982;15.248;2023-06-22T07:11:06;17.83;;;6.70;;
13866;SDS011;7003;46.982;15.248;2023-06-22T07:13:35;7.03;;;5.75;;
13866;SDS011;7003;46.982;15.248;2023-06-22T07:16:04;8.48;;;6.38;;
13866;SDS011;7003;46.982;15.248;2023-06-22T07:18:31;12.10;;;5.72;;
13866;SDS011;7003;46.982;15.248;2023-06-22T07:20:58;6.47;;;5.50;;
13866;SDS011;7003;46.982;15.248;2023-06-22T07:23:28;10.25;;;5.32;;
13866;SDS011;7003;46.982;15.248;2023-06-22T07:25:56;12.00;;;6.75;;
13866;SDS011;7003;46.982;15.248;2023-06-22T07:28:24;9.75;;;6.00;;
13866;SDS011;7003;46.982;15.248;2023-06-22T07:30:52;8.63;;;6.68;;
13866;SDS011;7003;46.982;15.248;2023-06-22T07:33:19;6.82;;;6.13;;
13866;SDS011;7003;46.982;15.248;2023-06-22T07:35:47;9.55;;;6.20;;
13866;SDS011;7003;46.982;15.248;2023-06-22T07:38:16;10.88;;;6.95;;
13866;SDS011;7003;46.982;15.248;2023-06-22T07:40:46;12.25;;;6.53;;
13866;SDS011;7003;46.982;15.248;2023-06-22T07:43:16;8.50;;;5.63;;
13866;SDS011;7003;46.982;15.248;2023-06-22T07:45:49;7.20;;;6.13;;
13866;SDS011;7003;46.982;15.248;2023-06-22T07:48:21;7.85;;;6.55;;
13866;SDS011;7003;46.982;15.248;2023-06-22T07:50:51;7.50;;;6.43;;
13866;SDS011;7003;46.982;15.248;2023-06-22T07:53:20;11.25;;;7.03;;
13866;SDS011;7003;46.982;15.248;2023-06-22T07:55:48;12.40;;;6.63;;
13866;SDS011;7003;46.982;15.248;2023-06-22T07:58:16;8.40;;;5.85;;
13866;SDS011;7003;46.982;15.248;2023-06-22T08:00:46;13.85;;;6.55;;
13866;SDS011;7003;46.982;15.248;2023-06-22T08:03:15;11.68;;;7.00;;
13866;SDS011;7003;46.982;15.248;2023-06-22T08:05:43;6.93;;;6.32;;
13866;SDS011;7003;46.982;15.248;2023-06-22T08:08:13;8.68;;;6.10;;
13866;SDS011;7003;46.982;15.248;2023-06-22T08:10:41;8.27;;;7.10;;
13866;SDS011;7003;46.982;15.248;2023-06-22T08:13:08;15.25;;;7.32;;
13866;SDS011;7003;46.982;15.248;2023-06-22T08:15:36;10.45;;;6.63;;
13866;SDS011;7003;46.982;15.248;2023-06-22T08:18:04;9.32;;;6.80;;
13866;SDS011;7003;46.982;15.248;2023-06-22T08:20:36;17.05;;;7.95;;
13866;SDS011;7003;46.982;15.248;2023-06-22T08:23:04;8.52;;;7.13;;
13866;SDS011;7003;46.982;15.248;2023-06-22T08:25:31;10.85;;;7.93;;
13866;SDS011;7003;46.982;15.248;2023-06-22T08:28:02;10.65;;;8.32;;
13866;SDS011;7003;46.982;15.248;2023-06-22T08:30:32;9.25;;;7.47;;
13866;SDS011;7003;46.982;15.248;2023-06-22T08:32:59;12.40;;;7.50;;
13866;SDS011;7003;46.982;15.248;2023-06-22T08:35:27;8.27;;;7.15;;
13866;SDS011;7003;46.982;15.248;2023-06-22T08:37:58;9.00;;;6.85;;
13866;SDS011;7003;46.982;15.248;2023-06-22T08:40:30;9.23;;;6.88;;
13866;SDS011;7003;46.982;15.248;2023-06-22T08:42:57;11.50;;;6.95;;
13866;SDS011;7003;46.982;15.248;2023-06-22T08:45:24;14.35;;;9.13;;
13866;SDS011;7003;46.982;15.248;2023-06-22T08:47:55;12.77;;;8.75;;
13866;SDS011;7003;46.982;15.248;2023-06-22T08:50:22;15.65;;;9.93;;
13866;SDS011;7003;46.982;15.248;2023-06-22T08:52:49;11.95;;;8.60;;
13866;SDS011;7003;46.982;15.248;2023-06-22T08:55:18;9.57;;;7.53;;
13866;SDS011;7003;46.982;15.248;2023-06-22T08:57:48;11.55;;;6.80;;
13866;SDS011;7003;46.982;15.248;2023-06-22T09:00:16;10.23;;;7.97;;
13866;SDS011;7003;46.982;15.248;2023-06-22T09:02:46;9.57;;;8.18;;
13866;SDS011;7003;46.982;15.248;2023-06-22T09:05:14;8.52;;;7.18;;
13866;SDS011;7003;46.982;15.248;2023-06-22T09:07:45;8.60;;;7.35;;
13866;SDS011;7003;46.982;15.248;2023-06-22T09:10:12;8.68;;;7.60;;
13866;SDS011;7003;46.982;15.248;2023-06-22T09:12:44;10.20;;;6.82;;
13866;SDS011;7003;46.982;15.248;2023-06-22T09:15:11;10.90;;;7.25;;
13866;SDS011;7003;46.982;15.248;2023-06-22T09:17:38;13.45;;;8.00;;
13866;SDS011;7003;46.982;15.248;2023-06-22T09:20:09;9.20;;;6.85;;
13866;SDS011;7003;46.982;15.248;2023-06-22T09:22:40;9.13;;;7.55;;
13866;SDS011;7003;46.982;15.248;2023-06-22T09:25:10;7.75;;;6.60;;
13866;SDS011;7003;46.982;15.248;2023-06-22T09:27:38;11.80;;;8.95;;
13866;SDS011;7003;46.982;15.248;2023-06-22T09:30:07;10.15;;;8.77;;
13866;SDS011;7003;46.982;15.248;2023-06-22T09:32:35;7.53;;;6.60;;
13866;SDS011;7003;46.982;15.248;2023-06-22T09:35:03;10.30;;;9.15;;
13866;SDS011;7003;46.982;15.248;2023-06-22T09:37:35;10.15;;;7.72;;
13866;SDS011;7003;46.982;15.248;2023-06-22T09:40:05;18.75;;;8.88;;
13866;SDS011;7003;46.982;15.248;2023-06-22T09:42:36;8.85;;;7.22;;
13866;SDS011;7003;46.982;15.248;2023-06-22T09:45:04;7.97;;;6.28;;
13866;SDS011;7003;46.982;15.248;2023-06-22T09:47:34;8.05;;;7.05;;
13866;SDS011;7003;46.982;15.248;2023-06-22T09:50:04;11.18;;;8.73;;
13866;SDS011;7003;46.982;15.248;2023-06-22T09:52:33;9.02;;;7.55;;
13866;SDS011;7003;46.982;15.248;2023-06-22T09:55:01;7.50;;;6.80;;
13866;SDS011;7003;46.982;15.248;2023-06-22T09:57:31;9.82;;;7.78;;
13866;SDS011;7003;46.982;15.248;2023-06-22T10:00:01;13.45;;;8.20;;
13866;SDS011;7003;46.982;15.248;2023-06-22T10:02:35;7.57;;;6.88;;
13866;SDS011;7003;46.982;15.248;2023-06-22T10:05:03;10.43;;;8.25;;
13866;SDS011;7003;46.982;15.248;2023-06-22T10:07:30;11.07;;;7.97;;
13866;SDS011;7003;46.982;15.248;2023-06-22T10:09:58;9.18;;;8.27;;
13866;SDS011;7003;46.982;15.248;2023-06-22T10:12:27;8.18;;;7.32;;
13866;SDS011;7003;46.982;15.248;2023-06-22T10:14:54;10.77;;;8.23;;
13866;SDS011;7003;46.982;15.248;2023-06-22T10:17:24;8.73;;;7.07;;
13866;SDS011;7003;46.982;15.248;2023-06-22T10:19:55;11.85;;;7.63;;
13866;SDS011;7003;46.982;15.248;2023-06-22T10:22:22;13.52;;;10.20;;
13866;SDS011;7003;46.982;15.248;2023-06-22T10:24:52;14.63;;;8.57;;
13866;SDS011;7003;46.982;15.248;2023-06-22T10:27:19;12.45;;;6.85;;
13866;SDS011;7003;46.982;15.248;2023-06-22T10:29:47;11.05;;;8.35;;
13866;SDS011;7003;46.982;15.248;2023-06-22T10:32:14;10.15;;;7.53;;
13866;SDS011;7003;46.982;15.248;2023-06-22T10:34:41;10.98;;;8.73;;
13866;SDS011;7003;46.982;15.248;2023-06-22T10:37:10;13.80;;;8.57;;
13866;SDS011;7003;46.982;15.248;2023-06-22T10:39:37;8.25;;;7.45;;
13866;SDS011;7003;46.982;15.248;2023-06-22T10:42:04;16.52;;;8.90;;
13866;SDS011;7003;46.982;15.248;2023-06-22T10:44:32;9.25;;;7.78;;
13866;SDS011;7003;46.982;15.248;2023-06-22T10:46:59;9.95;;;7.97;;
13866;SDS011;7003;46.982;15.248;2023-06-22T10:49:30;8.73;;;7.88;;
13866;SDS011;7003;46.982;15.248;2023-06-22T10:52:00;11.48;;;7.97;;
13866;SDS011;7003;46.982;15.248;2023-06-22T10:54:28;10.32;;;7.38;;
13866;SDS011;7003;46.982;15.248;2023-06-22T10:56:56;13.52;;;8.95;;
13866;SDS011;7003;46.982;15.248;2023-06-22T10:59:26;12.10;;;7.90;;
13866;SDS011;7003;46.982;15.248;2023-06-22T11:01:54;14.45;;;8.55;;
13866;SDS011;7003;46.982;15.248;2023-06-22T11:04:22;11.13;;;8.00;;
13866;SDS011;7003;46.982;15.248;2023-06-22T11:06:49;10.52;;;8.80;;
13866;SDS011;7003;46.982;15.248;2023-06-22T11:09:19;9.80;;;8.40;;
13866;SDS011;7003;46.982;15.248;2023-06-22T11:11:48;14.23;;;10.48;;
13866;SDS011;7003;46.982;15.248;2023-06-22T11:14:18;11.40;;;9.18;;
13866;SDS011;7003;46.982;15.248;2023-06-22T11:16:46;12.10;;;7.85;;
13866;SDS011;7003;46.982;15.248;2023-06-22T11:19:16;8.30;;;7.60;;
13866;SDS011;7003;46.982;15.248;2023-06-22T11:21:43;13.00;;;8.60;;
13866;SDS011;7003;46.982;15.248;2023-06-22T11:24:10;14.98;;;8.40;;
13866;SDS011;7003;46.982;15.248;2023-06-22T11:26:37;10.48;;;8.70;;
13866;SDS011;7003;46.982;15.248;2023-06-22T11:29:09;11.00;;;8.27;;
13866;SDS011;7003;46.982;15.248;2023-06-22T11:31:38;8.45;;;7.20;;
13866;SDS011;7003;46.982;15.248;2023-06-22T11:34:08;10.40;;;8.40;;
13866;SDS011;7003;46.982;15.248;2023-06-22T11:36:35;11.30;;;7.57;;
13866;SDS011;7003;46.982;15.248;2023-06-22T11:39:04;9.82;;;8.13;;
13866;SDS011;7003;46.982;15.248;2023-06-22T11:41:34;12.18;;;8.98;;
13866;SDS011;7003;46.982;15.248;2023-06-22T11:44:04;9.88;;;8.20;;
13866;SDS011;7003;46.982;15.248;2023-06-22T11:46:36;13.10;;;8.00;;
13866;SDS011;7003;46.982;15.248;2023-06-22T11:49:06;16.17;;;7.57;;
13866;SDS011;7003;46.982;15.248;2023-06-22T11:51:34;10.05;;;7.72;;
13866;SDS011;7003;46.982;15.248;2023-06-22T11:54:04;12.82;;;8.25;;
13866;SDS011;7003;46.982;15.248;2023-06-22T11:56:32;9.13;;;8.10;;
13866;SDS011;7003;46.982;15.248;2023-06-22T11:58:59;12.90;;;7.53;;
13866;SDS011;7003;46.982;15.248;2023-06-22T12:01:27;8.95;;;7.38;;
13866;SDS011;7003;46.982;15.248;2023-06-22T12:03:56;9.85;;;7.45;;
13866;SDS011;7003;46.982;15.248;2023-06-22T12:06:23;8.80;;;7.82;;
13866;SDS011;7003;46.982;15.248;2023-06-22T12:08:50;8.52;;;7.30;;
13866;SDS011;7003;46.982;15.248;2023-06-22T12:11:18;9.82;;;7.82;;
13866;SDS011;7003;46.982;15.248;2023-06-22T12:13:45;9.27;;;7.80;;
13866;SDS011;7003;46.982;15.248;2023-06-22T12:16:13;12.77;;;8.23;;
13866;SDS011;7003;46.982;15.248;2023-06-22T12:18:40;11.25;;;7.20;;
13866;SDS011;7003;46.982;15.248;2023-06-22T12:21:08;10.90;;;8.27;;
13866;SDS011;7003;46.982;15.248;2023-06-22T12:23:38;8.77;;;7.68;;
13866;SDS011;7003;46.982;15.248;2023-06-22T12:26:05;13.23;;;9.93;;
13866;SDS011;7003;46.982;15.248;2023-06-22T12:28:33;8.88;;;8.00;;
13866;SDS011;7003;46.982;15.248;2023-06-22T12:31:00;10.10;;;8.15;;
13866;SDS011;7003;46.982;15.248;2023-06-22T12:33:27;10.15;;;8.10;;
13866;SDS011;7003;46.982;15.248;2023-06-22T12:35:56;12.38;;;9.40;;
13866;SDS011;7003;46.982;15.248;2023-06-22T12:38:25;8.75;;;7.85;;
13866;SDS011;7003;46.982;15.248;2023-06-22T12:40:53;10.95;;;8.40;;
13866;SDS011;7003;46.982;15.248;2023-06-22T12:43:20;8.95;;;7.90;;
13866;SDS011;7003;46.982;15.248;2023-06-22T12:45:47;9.02;;;8.13;;
13866;SDS011;7003;46.982;15.248;2023-06-22T12:48:14;7.90;;;7.00;;
13866;SDS011;7003;46.982;15.248;2023-06-22T12:50:45;8.25;;;7.13;;
13866;SDS011;7003;46.982;15.248;2023-06-22T12:53:14;11.95;;;8.13;;
13866;SDS011;7003;46.982;15.248;2023-06-22T12:55:43;10.23;;;7.70;;
13866;SDS011;7003;46.982;15.248;2023-06-22T12:58:12;10.85;;;8.88;;
13866;SDS011;7003;46.982;15.248;2023-06-22T13:00:42;10.38;;;7.57;;
13866;SDS011;7003;46.982;15.248;2023-06-22T13:03:10;10.85;;;7.47;;
13866;SDS011;7003;46.982;15.248;2023-06-22T13:05:40;9.32;;;8.07;;
13866;SDS011;7003;46.982;15.248;2023-06-22T13:08:07;8.02;;;7.22;;
13866;SDS011;7003;46.982;15.248;2023-06-22T13:10:36;12.45;;;8.88;;
13866;SDS011;7003;46.982;15.248;2023-06-22T13:13:05;20.17;;;8.55;;
13866;SDS011;7003;46.982;15.248;2023-06-22T13:15:35;10.80;;;8.45;;
13866;SDS011;7003;46.982;15.248;2023-06-22T13:18:05;11.20;;;9.60;;
13866;SDS011;7003;46.982;15.248;2023-06-22T13:20:33;10.85;;;8.50;;
13866;SDS011;7003;46.982;15.248;2023-06-22T13:23:03;9.68;;;8.60;;
13866;SDS011;7003;46.982;15.248;2023-06-22T13:25:30;8.10;;;7.28;;
13866;SDS011;7003;46.982;15.248;2023-06-22T13:27:59;14.77;;;8.82;;
13866;SDS011;7003;46.982;15.248;2023-06-22T13:30:28;16.20;;;8.85;;
13866;SDS011;7003;46.982;15.248;2023-06-22T13:32:56;12.75;;;8.90;;
13866;SDS011;7003;46.982;15.248;2023-06-22T13:35:24;10.20;;;7.70;;
13866;SDS011;7003;46.982;15.248;2023-06-22T13:37:51;11.63;;;9.02;;
13866;SDS011;7003;46.982;15.248;2023-06-22T13:40:18;11.48;;;9.18;;
13866;SDS011;7003;46.982;15.248;2023-06-22T13:42:45;11.43;;;9.48;;
13866;SDS011;7003;46.982;15.248;2023-06-22T13:45:13;8.45;;;7.57;;
13866;SDS011;7003;46.982;15.248;2023-06-22T13:47:45;11.00;;;7.90;;
13866;SDS011;7003;46.982;15.248;2023-06-22T13:50:16;10.32;;;8.18;;
13866;SDS011;7003;46.982;15.248;2023-06-22T13:52:43;11.35;;;8.13;;
13866;SDS011;7003;46.982;15.248;2023-06-22T13:55:10;9.55;;;8.25;;
13866;SDS011;7003;46.982;15.248;2023-06-22T13:57:42;12.25;;;9.48;;
13866;SDS011;7003;46.982;15.248;2023-06-22T14:00:10;16.35;;;10.02;;
13866;SDS011;7003;46.982;15.248;2023-06-22T14:02:39;12.35;;;9.70;;
13866;SDS011;7003;46.982;15.248;2023-06-22T14:05:08;9.95;;;8.95;;
13866;SDS011;7003;46.982;15.248;2023-06-22T14:07:37;12.25;;;9.05;;
13866;SDS011;7003;46.982;15.248;2023-06-22T14:10:07;10.65;;;9.63;;
13866;SDS011;7003;46.982;15.248;2023-06-22T14:12:35;14.07;;;10.57;;
13866;SDS011;7003;46.982;15.248;2023-06-22T14:15:02;14.88;;;9.75;;
13866;SDS011;7003;46.982;15.248;2023-06-22T14:17:30;13.65;;;10.30;;
13866;SDS011;7003;46.982;15.248;2023-06-22T14:19:57;11.75;;;9.63;;
13866;SDS011;7003;46.982;15.248;2023-06-22T14:22:26;15.73;;;10.27;;
13866;SDS011;7003;46.982;15.248;2023-06-22T14:24:55;13.60;;;10.18;;
13866;SDS011;7003;46.982;15.248;2023-06-22T14:27:23;12.95;;;11.25;;
13866;SDS011;7003;46.982;15.248;2023-06-22T14:29:50;10.80;;;8.95;;
13866;SDS011;7003;46.982;15.248;2023-06-22T14:32:17;14.65;;;9.35;;
13866;SDS011;7003;46.982;15.248;2023-06-22T14:34:47;11.38;;;10.23;;
13866;SDS011;7003;46.982;15.248;2023-06-22T14:37:15;13.85;;;10.68;;
13866;SDS011;7003;46.982;15.248;2023-06-22T14:39:44;16.13;;;10.95;;
13866;SDS011;7003;46.982;15.248;2023-06-22T14:42:11;12.45;;;9.70;;
13866;SDS011;7003;46.982;15.248;2023-06-22T14:44:39;9.60;;;8.73;;
13866;SDS011;7003;46.982;15.248;2023-06-22T14:47:06;10.98;;;8.63;;
13866;SDS011;7003;46.982;15.248;2023-06-22T14:49:35;18.10;;;10.40;;
13866;SDS011;7003;46.982;15.248;2023-06-22T14:52:02;11.95;;;10.15;;